Hovedside
METAR-TAF:

METAR-TAF

Lufthavner :

Port Bouet lufthavn

Abidjan, Elfenbenskysten

breddegrad: 05-15N, lengdegrad: 003-56W, høyde over havet: 7 m

Gjeldene værobservasjon

Denne rapporten ble laget for 11 minutter siden, klokken 07:00 UTC
Vind 7 kt fra Vest-sørvest
Temperatur 25°C
Luftfuktighet 83%
Trykk 1014 hPa
Sikt: 9000 m
Få skyer i en høyde av 1100 ft
Brutte skyer i en høyde av 4000 ft

METAR: DIAP 140700Z 25007KT 9000 FEW011 BKN040 25/22 Q1014 NOSIG

Tid: 07:11 (07:11 UTC)

Varsel

Denne rapporten ble laget for 2 timer og 11 minutter siden, klokken 05:00 UTC
Varsel gyldig fra 14. klokken 06 UTC til 15. klokken 12 UTC
Vind 6 kt fra Vest-sørvest
Sikt 10 km eller mer
Spredte skyer i en høyde av 1200 ft
Midlertidig
fra 14. klokken 06 UTC til 14. klokken 10 UTC
Brutte skyer i en høyde av 1200 ft
Midlertidig
fra 14. klokken 22 UTC til 15. klokken 04 UTC
Brutte skyer i en høyde av 1200 ft

TAF: DIAP 140500Z 1406/1512 24006KT 9999 SCT012 TEMPO 1406/1410 BKN012 TEMPO 1422/1504 BKN012

Værobservasjoner og værvarsel for over 4000 flyplasser (METAR- og TAF-rapporter).

Tilgjengelige stasjoner er representert av de røde og gule prikkene på kartet.

Hold musepekeren over prikken for å se navnet på stasjonen.

Klikk så for å se værobservasjoner og -varsler.

For å forandre kartet kan du klikke på den grønne knappen med svart kryss for å zoome inn, på den grønne knappen med strek for å zoome ut, eller på de grønne pilene for å se tilstøtende kart.


METAR-TAF: